Anvle, Pennsylvania
Current Conditions -  °F | °C
As of 3:58 AM on Friday 28 Nov 2014 (Local Time) from KMUI Reporting Station
Clear Clear  
Wind Chill: 21°   Ceiling: Unl
Heat Index: 32°   Visibility: 10mi
Dew Point: 22°   Wind: 16mph
Humidity: 66%   Direction: 290°WNW
Pressure: 30.13"   Gusts: 23mph
Location:  40.43°N, 76.56°W
Report Text: KMUI 280858Z AUTO 29014G20KT 10SM CLR 00/M06 A3013 RMK AO2 SLP211 T10011058 51006 $
Loading
Personal Weather Stations






























Interactive Weather Map New forecast layout! Learn more

10-Day Weather Forecast

Advertisements
Track Severe Weather on mobile